createdAt,value
2022-12-14T00:00:42.239Z,8.37
2022-12-14T00:04:45.287Z,7.93
2022-12-14T00:08:50.449Z,7.90
2022-12-14T00:12:54.895Z,8.07
2022-12-14T00:16:57.913Z,8.90
2022-12-14T00:21:05.628Z,8.33
2022-12-14T00:25:09.350Z,8.37
2022-12-14T00:29:13.804Z,8.20
2022-12-14T00:33:16.845Z,8.20
2022-12-14T00:37:20.262Z,8.53
2022-12-14T00:41:23.544Z,8.33
2022-12-14T00:45:27.996Z,8.03
2022-12-14T00:49:31.059Z,8.40
2022-12-14T00:53:34.119Z,8.53
2022-12-14T00:57:37.210Z,7.83
2022-12-14T01:01:41.700Z,8.47
2022-12-14T01:05:49.249Z,7.90
2022-12-14T01:09:52.613Z,8.83
2022-12-14T01:13:57.368Z,8.03
2022-12-14T01:18:02.045Z,9.10
2022-12-14T01:22:05.163Z,8.13
2022-12-14T01:26:08.284Z,8.83
2022-12-14T01:30:12.179Z,8.77
2022-12-14T01:34:17.357Z,8.37
2022-12-14T01:38:20.341Z,8.33
2022-12-14T01:42:23.936Z,8.87
2022-12-14T01:46:34.929Z,8.20
2022-12-14T01:50:44.331Z,7.80
2022-12-14T01:54:50.403Z,9.13
2022-12-14T01:58:53.873Z,9.57
2022-12-14T02:03:01.770Z,8.63
2022-12-14T02:07:06.559Z,9.60
2022-12-14T02:11:09.629Z,9.80
2022-12-14T02:15:15.192Z,9.40
2022-12-14T02:19:18.284Z,9.57
2022-12-14T02:23:50.521Z,9.80
2022-12-14T02:28:09.260Z,9.93
2022-12-14T02:32:33.312Z,9.07
2022-12-14T02:36:42.860Z,9.63
2022-12-14T02:40:56.587Z,9.37
2022-12-14T02:45:08.415Z,9.50
2022-12-14T02:49:22.219Z,9.43
2022-12-14T02:53:30.842Z,9.60
2022-12-14T02:57:42.115Z,9.73
2022-12-14T03:01:48.282Z,9.80
2022-12-14T03:05:59.158Z,8.70
2022-12-14T03:10:07.388Z,9.03
2022-12-14T03:14:18.462Z,9.07
2022-12-14T03:18:24.620Z,9.27
2022-12-14T03:22:35.001Z,9.23
2022-12-14T03:26:47.524Z,8.97
2022-12-14T03:31:00.279Z,8.37
2022-12-14T03:35:08.804Z,9.30
2022-12-14T03:39:18.411Z,9.03
2022-12-14T03:43:28.617Z,9.10
2022-12-14T03:47:50.932Z,9.43
2022-12-14T03:52:04.432Z,9.53
2022-12-14T03:56:14.007Z,8.63
2022-12-14T04:00:22.588Z,9.30
2022-12-14T04:04:31.693Z,9.80
2022-12-14T04:08:42.471Z,8.57
2022-12-14T04:13:06.841Z,8.67
2022-12-14T04:17:31.478Z,9.80
2022-12-14T04:21:40.806Z,9.27
2022-12-14T04:26:05.992Z,9.33
2022-12-14T04:30:13.266Z,9.23
2022-12-14T04:34:19.313Z,9.30
2022-12-14T04:38:28.580Z,9.50
2022-12-14T04:42:37.345Z,9.07
2022-12-14T04:46:43.085Z,9.13
2022-12-14T04:50:50.499Z,8.90
2022-12-14T04:54:59.075Z,8.67
2022-12-14T04:59:02.431Z,9.00
2022-12-14T05:03:19.679Z,9.73
2022-12-14T05:07:35.049Z,9.57
2022-12-14T05:11:53.700Z,9.00
2022-12-14T05:15:59.569Z,8.03
2022-12-14T05:20:04.277Z,7.57
2022-12-14T05:24:07.938Z,9.10
2022-12-14T05:28:11.954Z,7.60
2022-12-14T05:32:15.085Z,7.97
2022-12-14T05:36:19.882Z,8.00
2022-12-14T05:40:23.253Z,7.03
2022-12-14T05:44:26.300Z,6.73
2022-12-14T05:48:29.403Z,7.30
2022-12-14T05:52:33.835Z,7.20
2022-12-14T05:56:37.026Z,7.93
2022-12-14T06:00:40.315Z,7.43
2022-12-14T06:04:43.450Z,7.83
2022-12-14T06:08:48.181Z,8.20
2022-12-14T06:12:51.397Z,8.40
2022-12-14T06:16:54.466Z,7.93
2022-12-14T06:20:58.700Z,7.60
2022-12-14T06:25:03.113Z,7.70
2022-12-14T06:29:06.173Z,8.20
2022-12-14T06:33:09.163Z,7.50
2022-12-14T06:37:12.258Z,7.70
2022-12-14T06:41:16.801Z,7.97
2022-12-14T06:45:19.795Z,7.77
2022-12-14T06:49:23.349Z,7.40
2022-12-14T06:53:26.779Z,7.60
2022-12-14T06:57:31.404Z,7.57
2022-12-14T07:01:34.525Z,7.50
2022-12-14T07:05:38.436Z,7.53
2022-12-14T07:09:41.492Z,7.93
2022-12-14T07:13:46.065Z,7.00
2022-12-14T07:17:52.074Z,6.53
2022-12-14T07:21:55.460Z,7.50
2022-12-14T07:26:02.440Z,7.47
2022-12-14T07:30:09.037Z,7.03
2022-12-14T07:34:14.106Z,6.60
2022-12-14T07:38:17.178Z,7.30
2022-12-14T07:42:20.390Z,7.60
2022-12-14T07:46:26.345Z,7.33
2022-12-14T07:50:29.551Z,6.70
2022-12-14T07:54:32.529Z,7.70
2022-12-14T07:58:36.695Z,6.67
2022-12-14T08:02:41.712Z,6.63
2022-12-14T08:06:46.834Z,7.40
2022-12-14T08:10:50.211Z,8.00
2022-12-14T08:14:53.294Z,7.93
2022-12-14T08:18:59.664Z,8.13
2022-12-14T08:23:02.780Z,7.63
2022-12-14T08:27:05.801Z,7.70
2022-12-14T08:31:10.638Z,7.73
2022-12-14T08:35:15.201Z,7.83
2022-12-14T08:39:18.308Z,7.20
2022-12-14T08:43:25.001Z,7.23
2022-12-14T08:47:28.329Z,7.80
2022-12-14T08:51:32.767Z,8.00
2022-12-14T08:55:38.972Z,8.20
2022-12-14T09:04:08.201Z,7.50
2022-12-14T09:08:12.872Z,7.17
2022-12-14T09:12:16.105Z,7.30
2022-12-14T09:16:21.896Z,7.63
2022-12-14T09:20:25.011Z,8.10
2022-12-14T09:24:29.611Z,8.10
2022-12-14T09:28:34.726Z,8.20
2022-12-14T09:32:37.788Z,9.13
2022-12-14T09:36:40.900Z,8.17
2022-12-14T09:40:51.318Z,8.10
2022-12-14T09:45:01.799Z,8.90
2022-12-14T09:49:06.270Z,8.20
2022-12-14T09:53:15.366Z,9.20
2022-12-14T09:57:29.775Z,8.83
2022-12-14T10:02:13.715Z,8.67
2022-12-14T10:06:34.125Z,8.70
2022-12-14T10:10:49.357Z,8.20
2022-12-14T10:15:11.320Z,8.37
2022-12-14T10:19:28.902Z,8.20
2022-12-14T10:23:32.891Z,9.03
2022-12-14T10:28:01.207Z,9.13
2022-12-14T10:32:13.448Z,9.33
2022-12-14T10:36:21.837Z,9.20
2022-12-14T10:40:34.069Z,9.77
2022-12-14T10:44:51.520Z,9.60
2022-12-14T10:49:07.547Z,9.00
2022-12-14T10:53:17.478Z,9.77
2022-12-14T10:57:21.853Z,8.83
2022-12-14T11:01:25.252Z,9.40
2022-12-14T11:05:37.623Z,8.40
2022-12-14T11:09:41.454Z,8.90
2022-12-14T11:13:52.879Z,9.53
2022-12-14T11:18:02.977Z,9.43
2022-12-14T11:22:20.295Z,9.47
2022-12-14T11:26:29.879Z,9.10
2022-12-14T11:30:33.250Z,9.10
2022-12-14T11:34:39.389Z,8.83
2022-12-14T11:38:43.832Z,9.20
2022-12-14T11:42:50.562Z,9.63
2022-12-14T11:46:56.461Z,9.37
2022-12-14T11:51:11.273Z,8.97
2022-12-14T11:55:24.710Z,9.43
2022-12-14T11:59:38.070Z,10.23
2022-12-14T12:03:47.114Z,9.13
2022-12-14T12:07:55.437Z,9.93
2022-12-14T12:12:00.127Z,9.43
2022-12-14T12:16:07.288Z,9.67
2022-12-14T12:20:23.718Z,8.57
2022-12-14T12:24:32.420Z,9.53
2022-12-14T12:28:44.821Z,10.07
2022-12-14T12:32:53.639Z,9.63
2022-12-14T12:37:25.249Z,9.03
2022-12-14T12:41:30.695Z,9.53
2022-12-14T12:45:39.232Z,9.40
2022-12-14T12:49:42.291Z,9.77
2022-12-14T12:53:49.022Z,9.73
2022-12-14T12:57:54.867Z,10.50
2022-12-14T13:02:04.485Z,13.77
2022-12-14T13:06:16.718Z,11.00
2022-12-14T13:10:24.033Z,9.67
2022-12-14T13:14:33.059Z,10.30
2022-12-14T13:19:08.860Z,10.37
2022-12-14T13:23:44.346Z,10.10
2022-12-14T13:27:51.212Z,9.87
2022-12-14T13:32:03.642Z,9.20
2022-12-14T13:36:35.257Z,10.40
2022-12-14T13:41:02.703Z,8.43
2022-12-14T13:45:16.234Z,9.17
2022-12-14T13:49:23.046Z,10.10
2022-12-14T13:53:30.542Z,9.03
2022-12-14T13:57:33.656Z,10.30
2022-12-14T14:02:05.129Z,9.23
2022-12-14T14:06:10.604Z,8.70
2022-12-14T14:10:32.195Z,9.40
2022-12-14T14:14:48.838Z,9.80
2022-12-14T14:18:58.503Z,9.80
2022-12-14T14:23:29.475Z,9.90
2022-12-14T14:27:38.802Z,9.73
2022-12-14T14:31:48.300Z,9.77
2022-12-14T14:35:51.585Z,9.50
2022-12-14T14:40:18.704Z,9.87
2022-12-14T14:44:38.958Z,10.77
2022-12-14T14:48:44.971Z,10.30
2022-12-14T14:53:13.999Z,10.77
2022-12-14T14:57:35.154Z,9.93
2022-12-14T15:01:45.623Z,10.07
2022-12-14T15:05:49.768Z,9.93
2022-12-14T15:10:00.845Z,9.50
2022-12-14T15:14:08.155Z,9.37
2022-12-14T15:18:22.890Z,10.50
2022-12-14T15:22:28.613Z,10.33
2022-12-14T15:26:35.398Z,11.10
2022-12-14T15:30:39.835Z,10.10
2022-12-14T15:34:53.356Z,9.80
2022-12-14T15:38:58.702Z,10.60
2022-12-14T15:43:03.778Z,9.97
2022-12-14T15:47:07.922Z,9.33
2022-12-14T15:51:17.939Z,10.33
2022-12-14T15:55:30.804Z,10.30
2022-12-14T15:59:36.982Z,9.87
2022-12-14T16:03:43.832Z,9.93
2022-12-14T16:07:52.391Z,9.97
2022-12-14T16:11:57.984Z,9.53
2022-12-14T16:16:08.017Z,8.67
2022-12-14T16:20:19.949Z,10.10
2022-12-14T16:24:26.650Z,9.80
2022-12-14T16:28:32.676Z,10.13
2022-12-14T16:32:36.094Z,10.60
2022-12-14T16:36:39.185Z,10.57
2022-12-14T16:40:53.026Z,10.37
2022-12-14T16:44:56.248Z,10.77
2022-12-14T16:49:20.802Z,9.77
2022-12-14T16:53:26.157Z,10.93
2022-12-14T16:57:30.878Z,10.40
2022-12-14T17:01:42.626Z,9.60
2022-12-14T17:05:54.019Z,9.97
2022-12-14T17:09:57.405Z,10.97
2022-12-14T17:14:01.928Z,11.17
2022-12-14T17:18:08.062Z,10.17
2022-12-14T17:22:17.506Z,10.90
2022-12-14T17:26:23.403Z,11.07
2022-12-14T17:30:28.784Z,9.77
2022-12-14T17:34:32.038Z,11.17
2022-12-14T17:38:35.314Z,11.30
2022-12-14T17:42:40.811Z,11.60
2022-12-14T17:46:48.696Z,11.13
2022-12-14T17:50:52.264Z,10.53
2022-12-14T17:54:55.454Z,11.00
2022-12-14T17:58:58.498Z,10.47
2022-12-14T18:03:03.955Z,11.70
2022-12-14T18:07:07.479Z,12.43
2022-12-14T18:11:14.658Z,11.47
2022-12-14T18:15:20.724Z,12.30
2022-12-14T18:19:25.373Z,11.23
2022-12-14T18:23:29.849Z,12.13
2022-12-14T18:27:33.393Z,11.50
2022-12-14T18:31:38.944Z,12.00
2022-12-14T18:35:44.318Z,13.00
2022-12-14T18:39:49.369Z,12.40
2022-12-14T18:43:54.287Z,13.03
2022-12-14T18:47:57.584Z,12.60
2022-12-14T18:52:02.014Z,12.70
2022-12-14T18:56:09.292Z,13.07
2022-12-14T19:00:15.051Z,13.53
2022-12-14T19:04:18.189Z,14.00
2022-12-14T19:08:22.592Z,12.83
2022-12-14T19:12:25.920Z,14.03
2022-12-14T19:16:29.295Z,14.20
2022-12-14T19:20:32.484Z,12.70
2022-12-14T19:24:37.462Z,13.97
2022-12-14T19:28:40.522Z,14.13
2022-12-14T19:32:44.209Z,15.00
2022-12-14T19:36:50.588Z,14.43
2022-12-14T19:41:03.344Z,15.60
2022-12-14T19:45:08.204Z,15.67
2022-12-14T19:49:14.764Z,16.07
2022-12-14T19:53:23.251Z,15.87
2022-12-14T19:57:29.062Z,16.40
2022-12-14T20:01:38.812Z,15.80
2022-12-14T20:05:51.334Z,16.47
2022-12-14T20:09:54.588Z,16.63
2022-12-14T20:14:03.290Z,17.73
2022-12-14T20:18:07.467Z,17.00
2022-12-14T20:22:10.803Z,16.83
2022-12-14T20:26:17.661Z,16.60
2022-12-14T20:30:22.137Z,17.87
2022-12-14T20:34:25.407Z,16.17
2022-12-14T20:38:29.487Z,16.43
2022-12-14T20:42:32.605Z,17.80
2022-12-14T20:46:39.411Z,16.80
2022-12-14T20:50:44.278Z,16.80
2022-12-14T20:54:54.074Z,16.67
2022-12-14T20:58:57.282Z,17.73
2022-12-14T21:03:01.921Z,17.03
2022-12-14T21:07:05.145Z,17.00
2022-12-14T21:11:22.209Z,16.80
2022-12-14T21:15:25.516Z,16.90
2022-12-14T21:19:30.071Z,17.67
2022-12-14T21:23:33.388Z,16.67
2022-12-14T21:27:39.005Z,17.07
2022-12-14T21:31:44.348Z,17.10
2022-12-14T21:35:48.804Z,17.07
2022-12-14T21:39:55.006Z,17.37
2022-12-14T21:44:00.499Z,16.30
2022-12-14T21:48:03.790Z,16.97
2022-12-14T21:52:08.268Z,17.07
2022-12-14T21:56:34.097Z,17.43
2022-12-14T22:00:39.158Z,17.03
2022-12-14T22:04:46.747Z,18.07
2022-12-14T22:08:51.414Z,17.87
2022-12-14T22:12:54.523Z,17.57
2022-12-14T22:16:57.615Z,17.13
2022-12-14T22:21:04.378Z,17.83
2022-12-14T22:25:09.620Z,18.33
2022-12-14T22:29:12.857Z,17.93
2022-12-14T22:33:16.059Z,18.87
2022-12-14T22:37:19.055Z,18.63
2022-12-14T22:41:23.581Z,17.67
2022-12-14T22:45:27.915Z,18.93
2022-12-14T22:49:30.926Z,17.10
2022-12-14T22:53:34.728Z,17.60
2022-12-14T22:57:41.740Z,16.27
2022-12-14T23:01:50.086Z,17.40
2022-12-14T23:06:00.354Z,15.83
2022-12-14T23:10:23.163Z,16.87
2022-12-14T23:14:44.993Z,16.37
2022-12-14T23:19:05.261Z,15.93
2022-12-14T23:23:26.977Z,16.63
2022-12-14T23:27:47.741Z,17.70
2022-12-14T23:32:09.756Z,17.40
2022-12-14T23:36:30.355Z,15.10
2022-12-14T23:40:50.579Z,16.20
2022-12-14T23:45:10.932Z,16.50
2022-12-14T23:49:33.146Z,16.60
2022-12-14T23:53:53.552Z,16.23
2022-12-14T23:58:15.849Z,16.30
